sensor_id;sensor_type;location;lat;lon;timestamp;P1;durP1;ratioP1;P2;durP2;ratioP2
38557;SDS011;24333;42.626;23.308;2022-11-25T00:01:50;1.85;;;1.30;;
38557;SDS011;24333;42.626;23.308;2022-11-25T00:05:05;6.82;;;2.10;;
38557;SDS011;24333;42.626;23.308;2022-11-25T00:07:34;2.65;;;1.20;;
38557;SDS011;24333;42.626;23.308;2022-11-25T00:10:04;3.63;;;1.35;;
38557;SDS011;24333;42.626;23.308;2022-11-25T00:24:02;2.78;;;1.83;;
38557;SDS011;24333;42.626;23.308;2022-11-25T00:26:30;2.42;;;1.67;;
38557;SDS011;24333;42.626;23.308;2022-11-25T00:28:57;3.88;;;1.65;;
38557;SDS011;24333;42.626;23.308;2022-11-25T00:31:34;3.40;;;1.80;;
38557;SDS011;24333;42.626;23.308;2022-11-25T00:34:03;2.58;;;1.48;;
38557;SDS011;24333;42.626;23.308;2022-11-25T00:36:47;3.25;;;1.75;;
38557;SDS011;24333;42.626;23.308;2022-11-25T00:39:26;2.35;;;1.52;;
38557;SDS011;24333;42.626;23.308;2022-11-25T00:42:09;1.95;;;1.52;;
38557;SDS011;24333;42.626;23.308;2022-11-25T00:45:50;4.13;;;1.70;;
38557;SDS011;24333;42.626;23.308;2022-11-25T00:56:40;3.55;;;1.40;;
38557;SDS011;24333;42.626;23.308;2022-11-25T01:01:56;2.17;;;1.83;;
38557;SDS011;24333;42.626;23.308;2022-11-25T01:04:51;4.63;;;2.00;;
38557;SDS011;24333;42.626;23.308;2022-11-25T01:11:02;4.15;;;1.70;;
38557;SDS011;24333;42.626;23.308;2022-11-25T01:14:01;3.22;;;1.58;;
38557;SDS011;24333;42.626;23.308;2022-11-25T01:16:31;3.00;;;1.70;;
38557;SDS011;24333;42.626;23.308;2022-11-25T01:18:58;2.85;;;1.52;;
38557;SDS011;24333;42.626;23.308;2022-11-25T01:21:27;2.97;;;1.58;;
38557;SDS011;24333;42.626;23.308;2022-11-25T01:24:07;4.38;;;1.50;;
38557;SDS011;24333;42.626;23.308;2022-11-25T01:26:40;1.25;;;1.08;;
38557;SDS011;24333;42.626;23.308;2022-11-25T01:29:17;3.55;;;1.92;;
38557;SDS011;24333;42.626;23.308;2022-11-25T01:32:04;2.70;;;1.33;;
38557;SDS011;24333;42.626;23.308;2022-11-25T01:37:24;1.85;;;1.02;;
38557;SDS011;24333;42.626;23.308;2022-11-25T01:40:08;1.17;;;0.98;;
38557;SDS011;24333;42.626;23.308;2022-11-25T01:47:17;1.60;;;0.70;;
38557;SDS011;24333;42.626;23.308;2022-11-25T01:50:33;1.08;;;0.98;;
38557;SDS011;24333;42.626;23.308;2022-11-25T01:53:12;1.13;;;1.00;;
38557;SDS011;24333;42.626;23.308;2022-11-25T01:55:53;2.22;;;1.23;;
38557;SDS011;24333;42.626;23.308;2022-11-25T01:58:29;1.63;;;0.82;;
38557;SDS011;24333;42.626;23.308;2022-11-25T02:01:23;6.20;;;1.27;;
38557;SDS011;24333;42.626;23.308;2022-11-25T02:03:54;3.13;;;0.90;;
38557;SDS011;24333;42.626;23.308;2022-11-25T02:06:28;1.23;;;0.88;;
38557;SDS011;24333;42.626;23.308;2022-11-25T02:16:07;0.90;;;0.80;;
38557;SDS011;24333;42.626;23.308;2022-11-25T02:18:34;1.48;;;1.02;;
38557;SDS011;24333;42.626;23.308;2022-11-25T02:21:00;1.55;;;1.00;;
38557;SDS011;24333;42.626;23.308;2022-11-25T02:23:38;1.13;;;0.82;;
38557;SDS011;24333;42.626;23.308;2022-11-25T02:26:33;1.42;;;1.00;;
38557;SDS011;24333;42.626;23.308;2022-11-25T02:29:02;5.68;;;1.15;;
38557;SDS011;24333;42.626;23.308;2022-11-25T02:31:58;3.67;;;0.80;;
38557;SDS011;24333;42.626;23.308;2022-11-25T02:34:25;1.60;;;1.10;;
38557;SDS011;24333;42.626;23.308;2022-11-25T02:36:53;1.48;;;1.02;;
38557;SDS011;24333;42.626;23.308;2022-11-25T02:39:21;3.00;;;1.10;;
38557;SDS011;24333;42.626;23.308;2022-11-25T02:47:06;3.65;;;1.00;;
38557;SDS011;24333;42.626;23.308;2022-11-25T02:49:31;3.13;;;0.82;;
38557;SDS011;24333;42.626;23.308;2022-11-25T02:51:57;1.30;;;1.10;;
38557;SDS011;24333;42.626;23.308;2022-11-25T02:54:23;1.30;;;1.00;;
38557;SDS011;24333;42.626;23.308;2022-11-25T02:56:49;2.10;;;1.23;;
38557;SDS011;24333;42.626;23.308;2022-11-25T03:00:00;6.68;;;1.20;;
38557;SDS011;24333;42.626;23.308;2022-11-25T03:02:34;2.97;;;0.98;;
38557;SDS011;24333;42.626;23.308;2022-11-25T03:05:01;2.67;;;1.25;;
38557;SDS011;24333;42.626;23.308;2022-11-25T03:07:29;1.75;;;0.95;;
38557;SDS011;24333;42.626;23.308;2022-11-25T03:17:32;1.63;;;1.23;;
38557;SDS011;24333;42.626;23.308;2022-11-25T03:22:34;5.20;;;1.25;;
38557;SDS011;24333;42.626;23.308;2022-11-25T03:27:43;4.07;;;1.50;;
38557;SDS011;24333;42.626;23.308;2022-11-25T03:40:43;2.33;;;1.25;;
38557;SDS011;24333;42.626;23.308;2022-11-25T03:45:56;3.13;;;1.30;;
38557;SDS011;24333;42.626;23.308;2022-11-25T04:20:46;1.42;;;1.10;;
38557;SDS011;24333;42.626;23.308;2022-11-25T05:04:12;1.23;;;0.98;;
38557;SDS011;24333;42.626;23.308;2022-11-25T05:06:40;1.52;;;0.90;;
38557;SDS011;24333;42.626;23.308;2022-11-25T05:09:06;2.50;;;1.40;;
38557;SDS011;24333;42.626;23.308;2022-11-25T05:11:35;1.38;;;1.10;;
38557;SDS011;24333;42.626;23.308;2022-11-25T05:14:02;2.33;;;1.10;;
38557;SDS011;24333;42.626;23.308;2022-11-25T05:16:42;1.30;;;0.95;;
38557;SDS011;24333;42.626;23.308;2022-11-25T05:19:08;1.63;;;1.02;;
38557;SDS011;24333;42.626;23.308;2022-11-25T06:55:35;1.77;;;1.20;;
38557;SDS011;24333;42.626;23.308;2022-11-25T06:58:04;2.72;;;1.30;;
38557;SDS011;24333;42.626;23.308;2022-11-25T07:00:29;2.40;;;1.30;;
38557;SDS011;24333;42.626;23.308;2022-11-25T07:02:54;1.73;;;1.10;;
38557;SDS011;24333;42.626;23.308;2022-11-25T07:05:21;1.90;;;1.08;;
38557;SDS011;24333;42.626;23.308;2022-11-25T07:07:46;1.73;;;1.00;;
38557;SDS011;24333;42.626;23.308;2022-11-25T07:38:47;5.15;;;2.05;;
38557;SDS011;24333;42.626;23.308;2022-11-25T07:41:14;3.85;;;1.85;;
38557;SDS011;24333;42.626;23.308;2022-11-25T07:43:49;4.07;;;1.40;;
38557;SDS011;24333;42.626;23.308;2022-11-25T07:48:54;2.13;;;1.35;;
38557;SDS011;24333;42.626;23.308;2022-11-25T07:54:00;1.35;;;1.00;;
38557;SDS011;24333;42.626;23.308;2022-11-25T07:56:29;2.70;;;1.38;;
38557;SDS011;24333;42.626;23.308;2022-11-25T07:58:57;2.47;;;1.45;;
38557;SDS011;24333;42.626;23.308;2022-11-25T08:01:23;2.60;;;1.45;;
38557;SDS011;24333;42.626;23.308;2022-11-25T08:03:49;2.15;;;1.40;;
38557;SDS011;24333;42.626;23.308;2022-11-25T08:06:19;3.05;;;1.48;;
38557;SDS011;24333;42.626;23.308;2022-11-25T08:08:47;2.97;;;1.67;;
38557;SDS011;24333;42.626;23.308;2022-11-25T08:11:18;5.20;;;1.50;;
38557;SDS011;24333;42.626;23.308;2022-11-25T08:14:02;3.28;;;1.58;;
38557;SDS011;24333;42.626;23.308;2022-11-25T08:16:28;2.63;;;1.52;;
38557;SDS011;24333;42.626;23.308;2022-11-25T08:18:59;2.63;;;1.58;;
38557;SDS011;24333;42.626;23.308;2022-11-25T08:21:29;2.05;;;1.23;;
38557;SDS011;24333;42.626;23.308;2022-11-25T08:23:54;2.95;;;1.35;;
38557;SDS011;24333;42.626;23.308;2022-11-25T08:26:23;3.03;;;1.50;;
38557;SDS011;24333;42.626;23.308;2022-11-25T08:28:54;1.60;;;1.10;;
38557;SDS011;24333;42.626;23.308;2022-11-25T08:31:27;3.05;;;1.73;;
38557;SDS011;24333;42.626;23.308;2022-11-25T08:33:54;2.05;;;1.40;;
38557;SDS011;24333;42.626;23.308;2022-11-25T08:36:23;3.85;;;1.63;;
38557;SDS011;24333;42.626;23.308;2022-11-25T08:38:54;3.55;;;1.40;;
38557;SDS011;24333;42.626;23.308;2022-11-25T08:41:41;2.08;;;1.17;;
38557;SDS011;24333;42.626;23.308;2022-11-25T08:44:28;4.00;;;1.50;;
38557;SDS011;24333;42.626;23.308;2022-11-25T08:46:54;2.13;;;1.35;;
38557;SDS011;24333;42.626;23.308;2022-11-25T08:49:19;2.22;;;1.70;;
38557;SDS011;24333;42.626;23.308;2022-11-25T08:51:46;2.75;;;1.60;;
38557;SDS011;24333;42.626;23.308;2022-11-25T08:54:24;3.08;;;1.90;;
38557;SDS011;24333;42.626;23.308;2022-11-25T08:56:49;3.55;;;1.65;;
38557;SDS011;24333;42.626;23.308;2022-11-25T08:59:15;3.17;;;1.60;;
38557;SDS011;24333;42.626;23.308;2022-11-25T09:01:41;4.07;;;1.80;;
38557;SDS011;24333;42.626;23.308;2022-11-25T09:04:15;3.22;;;1.67;;
38557;SDS011;24333;42.626;23.308;2022-11-25T09:06:41;2.60;;;1.77;;
38557;SDS011;24333;42.626;23.308;2022-11-25T09:09:06;4.97;;;1.65;;
38557;SDS011;24333;42.626;23.308;2022-11-25T09:11:31;3.97;;;1.90;;
38557;SDS011;24333;42.626;23.308;2022-11-25T09:42:59;2.78;;;1.65;;
38557;SDS011;24333;42.626;23.308;2022-11-25T10:54:21;2.92;;;1.00;;
38557;SDS011;24333;42.626;23.308;2022-11-25T11:00:00;1.83;;;0.85;;
38557;SDS011;24333;42.626;23.308;2022-11-25T11:02:37;1.20;;;1.00;;
38557;SDS011;24333;42.626;23.308;2022-11-25T11:07:36;2.25;;;1.20;;
38557;SDS011;24333;42.626;23.308;2022-11-25T11:50:25;2.47;;;1.75;;
38557;SDS011;24333;42.626;23.308;2022-11-25T12:25:22;2.13;;;1.70;;
38557;SDS011;24333;42.626;23.308;2022-11-25T12:31:19;5.30;;;1.98;;
38557;SDS011;24333;42.626;23.308;2022-11-25T12:50:32;4.78;;;2.13;;
38557;SDS011;24333;42.626;23.308;2022-11-25T12:53:34;6.50;;;2.53;;
38557;SDS011;24333;42.626;23.308;2022-11-25T13:02:03;6.05;;;2.20;;
38557;SDS011;24333;42.626;23.308;2022-11-25T13:05:08;4.88;;;2.20;;
38557;SDS011;24333;42.626;23.308;2022-11-25T13:26:48;9.02;;;2.17;;
38557;SDS011;24333;42.626;23.308;2022-11-25T13:42:25;3.90;;;2.20;;
38557;SDS011;24333;42.626;23.308;2022-11-25T13:50:23;3.33;;;2.08;;
38557;SDS011;24333;42.626;23.308;2022-11-25T13:53:00;11.30;;;3.13;;
38557;SDS011;24333;42.626;23.308;2022-11-25T13:55:33;3.75;;;2.50;;
38557;SDS011;24333;42.626;23.308;2022-11-25T14:01:04;3.70;;;2.22;;
38557;SDS011;24333;42.626;23.308;2022-11-25T14:09:24;3.72;;;2.10;;
38557;SDS011;24333;42.626;23.308;2022-11-25T14:51:10;7.55;;;3.03;;
38557;SDS011;24333;42.626;23.308;2022-11-25T14:53:43;5.05;;;2.78;;
38557;SDS011;24333;42.626;23.308;2022-11-25T14:58:56;7.25;;;2.58;;
38557;SDS011;24333;42.626;23.308;2022-11-25T15:04:17;5.88;;;2.60;;
38557;SDS011;24333;42.626;23.308;2022-11-25T15:07:13;9.10;;;2.75;;
38557;SDS011;24333;42.626;23.308;2022-11-25T15:09:59;5.28;;;2.70;;
38557;SDS011;24333;42.626;23.308;2022-11-25T15:20:30;5.03;;;2.88;;
38557;SDS011;24333;42.626;23.308;2022-11-25T15:28:37;3.83;;;1.67;;
38557;SDS011;24333;42.626;23.308;2022-11-25T15:31:16;5.43;;;3.15;;
38557;SDS011;24333;42.626;23.308;2022-11-25T15:33:49;6.47;;;2.03;;
38557;SDS011;24333;42.626;23.308;2022-11-25T15:52:32;3.33;;;1.95;;
38557;SDS011;24333;42.626;23.308;2022-11-25T15:55:07;10.07;;;3.10;;
38557;SDS011;24333;42.626;23.308;2022-11-25T15:57:44;3.35;;;1.80;;
38557;SDS011;24333;42.626;23.308;2022-11-25T16:00:16;6.80;;;3.40;;
38557;SDS011;24333;42.626;23.308;2022-11-25T16:36:10;2.72;;;1.10;;
38557;SDS011;24333;42.626;23.308;2022-11-25T16:38:36;4.68;;;2.10;;
38557;SDS011;24333;42.626;23.308;2022-11-25T16:41:07;1.92;;;1.48;;
38557;SDS011;24333;42.626;23.308;2022-11-25T16:43:37;3.80;;;1.88;;
38557;SDS011;24333;42.626;23.308;2022-11-25T16:46:04;2.33;;;1.42;;
38557;SDS011;24333;42.626;23.308;2022-11-25T16:48:31;2.72;;;1.40;;
38557;SDS011;24333;42.626;23.308;2022-11-25T16:50:56;2.80;;;1.50;;
38557;SDS011;24333;42.626;23.308;2022-11-25T16:53:22;3.08;;;1.40;;
38557;SDS011;24333;42.626;23.308;2022-11-25T16:55:47;1.95;;;1.42;;
38557;SDS011;24333;42.626;23.308;2022-11-25T16:58:33;3.97;;;1.45;;
38557;SDS011;24333;42.626;23.308;2022-11-25T17:01:01;4.68;;;2.42;;
38557;SDS011;24333;42.626;23.308;2022-11-25T17:03:27;2.40;;;1.40;;
38557;SDS011;24333;42.626;23.308;2022-11-25T17:05:52;2.97;;;1.70;;
38557;SDS011;24333;42.626;23.308;2022-11-25T17:08:22;2.05;;;1.30;;
38557;SDS011;24333;42.626;23.308;2022-11-25T17:10:48;2.67;;;1.38;;
38557;SDS011;24333;42.626;23.308;2022-11-25T17:13:17;3.63;;;1.40;;
38557;SDS011;24333;42.626;23.308;2022-11-25T17:15:50;1.80;;;1.10;;
38557;SDS011;24333;42.626;23.308;2022-11-25T17:18:16;1.60;;;0.73;;
38557;SDS011;24333;42.626;23.308;2022-11-25T17:20:43;3.30;;;1.52;;
38557;SDS011;24333;42.626;23.308;2022-11-25T17:23:13;4.55;;;1.38;;
38557;SDS011;24333;42.626;23.308;2022-11-25T17:36:01;2.67;;;1.20;;
38557;SDS011;24333;42.626;23.308;2022-11-25T17:54:01;1.35;;;1.10;;
38557;SDS011;24333;42.626;23.308;2022-11-25T18:01:55;3.47;;;1.15;;
38557;SDS011;24333;42.626;23.308;2022-11-25T18:14:26;2.45;;;1.95;;
38557;SDS011;24333;42.626;23.308;2022-11-25T18:16:57;3.08;;;1.20;;
38557;SDS011;24333;42.626;23.308;2022-11-25T18:19:26;3.70;;;1.63;;
38557;SDS011;24333;42.626;23.308;2022-11-25T18:22:13;4.05;;;1.58;;
38557;SDS011;24333;42.626;23.308;2022-11-25T18:24:51;2.53;;;1.08;;
38557;SDS011;24333;42.626;23.308;2022-11-25T18:27:25;2.97;;;1.58;;
38557;SDS011;24333;42.626;23.308;2022-11-25T18:29:53;1.38;;;1.00;;
38557;SDS011;24333;42.626;23.308;2022-11-25T18:32:28;1.88;;;1.00;;
38557;SDS011;24333;42.626;23.308;2022-11-25T18:34:55;3.00;;;1.17;;
38557;SDS011;24333;42.626;23.308;2022-11-25T18:37:50;3.75;;;1.30;;
38557;SDS011;24333;42.626;23.308;2022-11-25T18:40:26;3.15;;;1.20;;
38557;SDS011;24333;42.626;23.308;2022-11-25T18:53:30;1.73;;;0.90;;
38557;SDS011;24333;42.626;23.308;2022-11-25T18:55:57;3.72;;;1.48;;
38557;SDS011;24333;42.626;23.308;2022-11-25T18:58:25;2.65;;;1.23;;
38557;SDS011;24333;42.626;23.308;2022-11-25T19:41:43;1.75;;;1.15;;
38557;SDS011;24333;42.626;23.308;2022-11-25T19:44:10;2.08;;;1.33;;
38557;SDS011;24333;42.626;23.308;2022-11-25T19:46:38;5.13;;;1.17;;
38557;SDS011;24333;42.626;23.308;2022-11-25T19:58:54;4.28;;;1.95;;
38557;SDS011;24333;42.626;23.308;2022-11-25T20:01:31;3.03;;;1.10;;
38557;SDS011;24333;42.626;23.308;2022-11-25T21:15:18;2.33;;;1.35;;
38557;SDS011;24333;42.626;23.308;2022-11-25T21:17:53;4.07;;;1.20;;
38557;SDS011;24333;42.626;23.308;2022-11-25T21:20:24;2.47;;;1.23;;
38557;SDS011;24333;42.626;23.308;2022-11-25T21:22:52;3.22;;;1.15;;
38557;SDS011;24333;42.626;23.308;2022-11-25T21:25:22;1.60;;;0.98;;
38557;SDS011;24333;42.626;23.308;2022-11-25T21:27:49;2.63;;;1.23;;
38557;SDS011;24333;42.626;23.308;2022-11-25T21:30:28;4.20;;;1.30;;
38557;SDS011;24333;42.626;23.308;2022-11-25T21:33:08;2.03;;;1.27;;
38557;SDS011;24333;42.626;23.308;2022-11-25T21:35:34;2.08;;;1.10;;
38557;SDS011;24333;42.626;23.308;2022-11-25T21:38:10;4.40;;;1.42;;
38557;SDS011;24333;42.626;23.308;2022-11-25T21:40:49;3.10;;;1.30;;
38557;SDS011;24333;42.626;23.308;2022-11-25T21:43:28;3.03;;;1.30;;
38557;SDS011;24333;42.626;23.308;2022-11-25T21:46:01;5.55;;;1.30;;
38557;SDS011;24333;42.626;23.308;2022-11-25T21:48:28;1.98;;;1.00;;
38557;SDS011;24333;42.626;23.308;2022-11-25T21:50:53;1.33;;;1.15;;
38557;SDS011;24333;42.626;23.308;2022-11-25T21:53:19;2.35;;;1.30;;
38557;SDS011;24333;42.626;23.308;2022-11-25T21:55:51;2.97;;;1.45;;
38557;SDS011;24333;42.626;23.308;2022-11-25T21:58:24;4.35;;;1.75;;
38557;SDS011;24333;42.626;23.308;2022-11-25T22:00:53;4.90;;;1.80;;
38557;SDS011;24333;42.626;23.308;2022-11-25T22:03:24;2.17;;;1.33;;
38557;SDS011;24333;42.626;23.308;2022-11-25T22:05:54;3.58;;;1.30;;
38557;SDS011;24333;42.626;23.308;2022-11-25T22:08:20;2.45;;;1.23;;
38557;SDS011;24333;42.626;23.308;2022-11-25T22:10:48;1.90;;;1.17;;
38557;SDS011;24333;42.626;23.308;2022-11-25T22:13:16;3.50;;;1.23;;
38557;SDS011;24333;42.626;23.308;2022-11-25T22:15:44;2.42;;;1.17;;
38557;SDS011;24333;42.626;23.308;2022-11-25T22:18:18;4.63;;;1.20;;
38557;SDS011;24333;42.626;23.308;2022-11-25T22:20:55;2.88;;;1.25;;
38557;SDS011;24333;42.626;23.308;2022-11-25T22:23:22;3.05;;;1.38;;
38557;SDS011;24333;42.626;23.308;2022-11-25T22:25:48;1.63;;;1.10;;
38557;SDS011;24333;42.626;23.308;2022-11-25T22:28:15;1.95;;;1.08;;
38557;SDS011;24333;42.626;23.308;2022-11-25T22:30:53;2.90;;;1.15;;
38557;SDS011;24333;42.626;23.308;2022-11-25T22:33:33;2.00;;;1.17;;
38557;SDS011;24333;42.626;23.308;2022-11-25T22:36:52;1.30;;;1.15;;
38557;SDS011;24333;42.626;23.308;2022-11-25T22:44:31;2.25;;;1.10;;
38557;SDS011;24333;42.626;23.308;2022-11-25T22:47:01;3.55;;;1.00;;
38557;SDS011;24333;42.626;23.308;2022-11-25T22:49:40;4.97;;;1.02;;
38557;SDS011;24333;42.626;23.308;2022-11-25T22:54:35;5.68;;;1.33;;
38557;SDS011;24333;42.626;23.308;2022-11-25T22:57:12;3.33;;;1.13;;
38557;SDS011;24333;42.626;23.308;2022-11-25T22:59:38;2.13;;;1.27;;
38557;SDS011;24333;42.626;23.308;2022-11-25T23:02:03;1.63;;;0.98;;
38557;SDS011;24333;42.626;23.308;2022-11-25T23:04:30;2.88;;;0.98;;
38557;SDS011;24333;42.626;23.308;2022-11-25T23:07:04;3.78;;;1.25;;
38557;SDS011;24333;42.626;23.308;2022-11-25T23:09:42;2.50;;;1.05;;
38557;SDS011;24333;42.626;23.308;2022-11-25T23:12:10;3.90;;;1.55;;
38557;SDS011;24333;42.626;23.308;2022-11-25T23:14:37;2.03;;;1.10;;
38557;SDS011;24333;42.626;23.308;2022-11-25T23:17:05;5.82;;;1.35;;
38557;SDS011;24333;42.626;23.308;2022-11-25T23:19:42;2.78;;;1.38;;
38557;SDS011;24333;42.626;23.308;2022-11-25T23:22:13;4.18;;;1.35;;
38557;SDS011;24333;42.626;23.308;2022-11-25T23:24:40;5.80;;;1.50;;
38557;SDS011;24333;42.626;23.308;2022-11-25T23:32:21;1.10;;;0.88;;
